sensor_id;sensor_type;location;lat;lon;timestamp;pressure;altitude;pressure_sealevel;temperature;humidity
32933;BME280;19444;50.518;10.870;2022-11-15T00:00:07;96381.66;;;7.32;100.00
32933;BME280;19444;50.518;10.870;2022-11-15T00:03:04;96384.53;;;7.35;100.00
32933;BME280;19444;50.518;10.870;2022-11-15T00:06:03;96364.78;;;7.36;100.00
32933;BME280;19444;50.518;10.870;2022-11-15T00:09:00;96367.94;;;7.38;100.00
32933;BME280;19444;50.518;10.870;2022-11-15T00:11:57;96375.59;;;7.26;100.00
32933;BME280;19444;50.518;10.870;2022-11-15T00:14:54;96366.34;;;7.37;100.00
32933;BME280;19444;50.518;10.870;2022-11-15T00:17:51;96354.06;;;7.41;100.00
32933;BME280;19444;50.518;10.870;2022-11-15T00:20:48;96362.69;;;7.52;100.00
32933;BME280;19444;50.518;10.870;2022-11-15T00:23:44;96369.72;;;7.62;100.00
32933;BME280;19444;50.518;10.870;2022-11-15T00:26:41;96361.88;;;7.52;100.00
32933;BME280;19444;50.518;10.870;2022-11-15T00:29:38;96364.63;;;7.47;100.00
32933;BME280;19444;50.518;10.870;2022-11-15T00:32:39;96346.81;;;7.61;100.00
32933;BME280;19444;50.518;10.870;2022-11-15T00:35:36;96358.16;;;7.66;100.00
32933;BME280;19444;50.518;10.870;2022-11-15T00:38:35;96348.88;;;7.64;100.00
32933;BME280;19444;50.518;10.870;2022-11-15T00:41:32;96354.03;;;7.74;100.00
32933;BME280;19444;50.518;10.870;2022-11-15T00:44:29;96347.66;;;7.89;100.00
32933;BME280;19444;50.518;10.870;2022-11-15T00:47:25;96347.63;;;7.75;100.00
32933;BME280;19444;50.518;10.870;2022-11-15T00:50:22;96330.50;;;7.62;100.00
32933;BME280;19444;50.518;10.870;2022-11-15T00:53:19;96334.16;;;7.66;100.00
32933;BME280;19444;50.518;10.870;2022-11-15T00:56:16;96338.03;;;7.74;100.00
32933;BME280;19444;50.518;10.870;2022-11-15T00:59:13;96335.06;;;7.62;100.00
32933;BME280;19444;50.518;10.870;2022-11-15T01:02:10;96335.56;;;7.64;100.00
32933;BME280;19444;50.518;10.870;2022-11-15T01:05:07;96334.94;;;7.53;100.00
32933;BME280;19444;50.518;10.870;2022-11-15T01:08:04;96334.88;;;7.39;100.00
32933;BME280;19444;50.518;10.870;2022-11-15T01:11:08;96333.16;;;7.30;100.00
32933;BME280;19444;50.518;10.870;2022-11-15T01:14:06;96332.44;;;7.43;100.00
32933;BME280;19444;50.518;10.870;2022-11-15T01:17:03;96329.34;;;7.36;100.00
32933;BME280;19444;50.518;10.870;2022-11-15T01:20:00;96330.50;;;7.30;100.00
32933;BME280;19444;50.518;10.870;2022-11-15T01:22:57;96331.66;;;7.24;100.00
32933;BME280;19444;50.518;10.870;2022-11-15T01:25:59;96322.41;;;7.35;100.00
32933;BME280;19444;50.518;10.870;2022-11-15T01:28:56;96324.63;;;7.47;100.00
32933;BME280;19444;50.518;10.870;2022-11-15T01:31:53;96320.28;;;7.83;100.00
32933;BME280;19444;50.518;10.870;2022-11-15T01:34:50;96320.22;;;7.56;100.00
32933;BME280;19444;50.518;10.870;2022-11-15T01:37:47;96326.88;;;7.72;100.00
32933;BME280;19444;50.518;10.870;2022-11-15T01:40:44;96323.72;;;7.70;100.00
32933;BME280;19444;50.518;10.870;2022-11-15T01:43:41;96314.53;;;7.76;100.00
32933;BME280;19444;50.518;10.870;2022-11-15T01:46:38;96311.47;;;7.69;100.00
32933;BME280;19444;50.518;10.870;2022-11-15T01:49:38;96303.84;;;7.62;100.00
32933;BME280;19444;50.518;10.870;2022-11-15T01:52:38;96309.25;;;7.57;100.00
32933;BME280;19444;50.518;10.870;2022-11-15T01:55:35;96308.91;;;7.78;100.00
32933;BME280;19444;50.518;10.870;2022-11-15T01:58:33;96300.00;;;7.68;100.00
32933;BME280;19444;50.518;10.870;2022-11-15T02:01:32;96290.53;;;7.76;100.00
32933;BME280;19444;50.518;10.870;2022-11-15T02:04:42;96281.50;;;7.58;100.00
32933;BME280;19444;50.518;10.870;2022-11-15T02:07:40;96282.28;;;7.59;100.00
32933;BME280;19444;50.518;10.870;2022-11-15T02:10:37;96279.75;;;7.67;100.00
32933;BME280;19444;50.518;10.870;2022-11-15T02:13:34;96284.94;;;7.59;100.00
32933;BME280;19444;50.518;10.870;2022-11-15T02:16:43;96272.44;;;7.73;100.00
32933;BME280;19444;50.518;10.870;2022-11-15T02:20:42;96271.28;;;7.79;100.00
32933;BME280;19444;50.518;10.870;2022-11-15T02:27:12;96262.69;;;7.68;100.00
32933;BME280;19444;50.518;10.870;2022-11-15T02:30:45;96260.69;;;7.74;100.00
32933;BME280;19444;50.518;10.870;2022-11-15T02:34:32;96249.91;;;7.65;100.00
32933;BME280;19444;50.518;10.870;2022-11-15T02:37:39;96253.19;;;7.76;100.00
32933;BME280;19444;50.518;10.870;2022-11-15T02:41:05;96255.66;;;7.73;100.00
32933;BME280;19444;50.518;10.870;2022-11-15T02:44:20;96254.47;;;7.79;100.00
32933;BME280;19444;50.518;10.870;2022-11-15T02:47:18;96244.38;;;7.76;100.00
32933;BME280;19444;50.518;10.870;2022-11-15T02:50:20;96239.25;;;7.93;100.00
32933;BME280;19444;50.518;10.870;2022-11-15T02:53:18;96239.47;;;7.96;100.00
32933;BME280;19444;50.518;10.870;2022-11-15T02:56:19;96235.63;;;7.89;100.00
32933;BME280;19444;50.518;10.870;2022-11-15T02:59:32;96240.06;;;7.80;100.00
32933;BME280;19444;50.518;10.870;2022-11-15T03:03:21;96233.34;;;7.82;100.00
32933;BME280;19444;50.518;10.870;2022-11-15T03:13:27;96235.91;;;8.01;100.00
32933;BME280;19444;50.518;10.870;2022-11-15T03:16:41;96230.47;;;7.92;100.00
32933;BME280;19444;50.518;10.870;2022-11-15T03:19:45;96237.28;;;7.85;100.00
32933;BME280;19444;50.518;10.870;2022-11-15T03:22:45;96230.38;;;7.84;100.00
32933;BME280;19444;50.518;10.870;2022-11-15T03:25:48;96243.03;;;7.78;100.00
32933;BME280;19444;50.518;10.870;2022-11-15T03:29:19;96235.59;;;7.75;100.00
32933;BME280;19444;50.518;10.870;2022-11-15T03:32:25;96224.25;;;7.83;100.00
32933;BME280;19444;50.518;10.870;2022-11-15T03:35:26;96220.88;;;7.91;100.00
32933;BME280;19444;50.518;10.870;2022-11-15T03:38:29;96224.34;;;7.92;100.00
32933;BME280;19444;50.518;10.870;2022-11-15T03:48:16;96227.31;;;7.90;100.00
32933;BME280;19444;50.518;10.870;2022-11-15T03:51:15;96215.94;;;7.98;100.00
32933;BME280;19444;50.518;10.870;2022-11-15T03:54:13;96205.28;;;7.98;100.00
32933;BME280;19444;50.518;10.870;2022-11-15T03:57:10;96210.22;;;8.05;100.00
32933;BME280;19444;50.518;10.870;2022-11-15T04:00:08;96194.19;;;7.91;100.00
32933;BME280;19444;50.518;10.870;2022-11-15T04:03:05;96200.53;;;7.95;100.00
32933;BME280;19444;50.518;10.870;2022-11-15T04:06:04;96189.94;;;8.04;100.00
32933;BME280;19444;50.518;10.870;2022-11-15T04:09:01;96189.06;;;7.95;100.00
32933;BME280;19444;50.518;10.870;2022-11-15T04:11:58;96175.53;;;7.91;100.00
32933;BME280;19444;50.518;10.870;2022-11-15T04:14:54;96175.44;;;7.96;100.00
32933;BME280;19444;50.518;10.870;2022-11-15T04:18:03;96172.56;;;7.93;100.00
32933;BME280;19444;50.518;10.870;2022-11-15T04:21:00;96182.03;;;7.99;100.00
32933;BME280;19444;50.518;10.870;2022-11-15T04:24:16;96175.53;;;8.05;100.00
32933;BME280;19444;50.518;10.870;2022-11-15T04:27:13;96181.44;;;8.02;100.00
32933;BME280;19444;50.518;10.870;2022-11-15T04:30:10;96173.56;;;7.97;100.00
32933;BME280;19444;50.518;10.870;2022-11-15T04:33:07;96179.78;;;7.92;100.00
32933;BME280;19444;50.518;10.870;2022-11-15T04:36:05;96172.06;;;7.77;100.00
32933;BME280;19444;50.518;10.870;2022-11-15T04:39:20;96178.88;;;7.56;100.00
32933;BME280;19444;50.518;10.870;2022-11-15T04:42:17;96182.03;;;7.58;100.00
32933;BME280;19444;50.518;10.870;2022-11-15T04:45:14;96179.06;;;7.46;100.00
32933;BME280;19444;50.518;10.870;2022-11-15T04:48:11;96173.75;;;7.46;100.00
32933;BME280;19444;50.518;10.870;2022-11-15T04:51:08;96172.06;;;7.50;100.00
32933;BME280;19444;50.518;10.870;2022-11-15T04:54:05;96168.13;;;7.47;100.00
32933;BME280;19444;50.518;10.870;2022-11-15T04:57:02;96171.59;;;7.61;100.00
32933;BME280;19444;50.518;10.870;2022-11-15T04:59:59;96160.81;;;7.53;100.00
32933;BME280;19444;50.518;10.870;2022-11-15T05:02:57;96162.38;;;7.67;100.00
32933;BME280;19444;50.518;10.870;2022-11-15T05:06:12;96158.03;;;7.58;100.00
32933;BME280;19444;50.518;10.870;2022-11-15T05:09:09;96163.56;;;7.48;100.00
32933;BME280;19444;50.518;10.870;2022-11-15T05:12:06;96156.06;;;7.50;100.00
32933;BME280;19444;50.518;10.870;2022-11-15T05:15:04;96157.84;;;7.54;100.00
32933;BME280;19444;50.518;10.870;2022-11-15T05:18:01;96165.75;;;7.46;100.00
32933;BME280;19444;50.518;10.870;2022-11-15T05:21:04;96163.47;;;7.39;100.00
32933;BME280;19444;50.518;10.870;2022-11-15T05:24:02;96172.44;;;7.29;100.00
32933;BME280;19444;50.518;10.870;2022-11-15T05:27:00;96169.66;;;7.07;100.00
32933;BME280;19444;50.518;10.870;2022-11-15T05:29:57;96167.34;;;7.00;100.00
32933;BME280;19444;50.518;10.870;2022-11-15T05:32:54;96162.50;;;6.89;100.00
32933;BME280;19444;50.518;10.870;2022-11-15T05:35:59;96159.72;;;6.61;100.00
32933;BME280;19444;50.518;10.870;2022-11-15T05:38:57;96168.25;;;6.25;100.00
32933;BME280;19444;50.518;10.870;2022-11-15T05:42:00;96166.81;;;6.14;100.00
32933;BME280;19444;50.518;10.870;2022-11-15T05:45:00;96160.59;;;6.00;100.00
32933;BME280;19444;50.518;10.870;2022-11-15T05:48:00;96164.50;;;5.84;100.00
32933;BME280;19444;50.518;10.870;2022-11-15T05:50:58;96161.91;;;5.79;100.00
32933;BME280;19444;50.518;10.870;2022-11-15T05:53:57;96167.47;;;5.58;100.00
32933;BME280;19444;50.518;10.870;2022-11-15T05:56:54;96168.09;;;5.50;100.00
32933;BME280;19444;50.518;10.870;2022-11-15T05:59:53;96164.91;;;5.48;100.00
32933;BME280;19444;50.518;10.870;2022-11-15T06:02:51;96170.31;;;5.38;100.00
32933;BME280;19444;50.518;10.870;2022-11-15T06:05:48;96154.81;;;5.50;100.00
32933;BME280;19444;50.518;10.870;2022-11-15T06:08:44;96158.25;;;5.51;100.00
32933;BME280;19444;50.518;10.870;2022-11-15T06:11:41;96160.78;;;5.37;100.00
32933;BME280;19444;50.518;10.870;2022-11-15T06:14:38;96164.81;;;5.34;100.00
32933;BME280;19444;50.518;10.870;2022-11-15T06:17:35;96166.81;;;5.19;100.00
32933;BME280;19444;50.518;10.870;2022-11-15T06:20:32;96161.19;;;5.25;100.00
32933;BME280;19444;50.518;10.870;2022-11-15T06:23:32;96174.28;;;5.17;100.00
32933;BME280;19444;50.518;10.870;2022-11-15T06:26:30;96180.38;;;5.17;100.00
32933;BME280;19444;50.518;10.870;2022-11-15T06:29:27;96175.63;;;5.14;100.00
32933;BME280;19444;50.518;10.870;2022-11-15T06:32:24;96168.19;;;4.87;100.00
32933;BME280;19444;50.518;10.870;2022-11-15T06:35:21;96170.91;;;4.77;100.00
32933;BME280;19444;50.518;10.870;2022-11-15T06:38:18;96181.38;;;4.92;100.00
32933;BME280;19444;50.518;10.870;2022-11-15T06:41:15;96176.44;;;4.85;100.00
32933;BME280;19444;50.518;10.870;2022-11-15T06:44:13;96175.34;;;4.87;100.00
32933;BME280;19444;50.518;10.870;2022-11-15T06:47:10;96177.03;;;4.77;100.00
32933;BME280;19444;50.518;10.870;2022-11-15T06:50:07;96172.59;;;4.63;100.00
32933;BME280;19444;50.518;10.870;2022-11-15T06:53:05;96178.38;;;5.04;100.00
32933;BME280;19444;50.518;10.870;2022-11-15T06:56:06;96177.84;;;4.73;100.00
32933;BME280;19444;50.518;10.870;2022-11-15T06:59:04;96179.03;;;4.91;100.00
32933;BME280;19444;50.518;10.870;2022-11-15T07:02:00;96176.63;;;4.94;100.00
32933;BME280;19444;50.518;10.870;2022-11-15T07:04:57;96177.44;;;4.90;100.00
32933;BME280;19444;50.518;10.870;2022-11-15T07:07:56;96173.78;;;4.85;100.00
32933;BME280;19444;50.518;10.870;2022-11-15T07:10:53;96175.53;;;4.95;100.00
32933;BME280;19444;50.518;10.870;2022-11-15T07:13:50;96172.00;;;4.76;100.00
32933;BME280;19444;50.518;10.870;2022-11-15T07:16:47;96172.44;;;5.12;100.00
32933;BME280;19444;50.518;10.870;2022-11-15T07:19:44;96171.06;;;4.91;100.00
32933;BME280;19444;50.518;10.870;2022-11-15T07:22:41;96162.19;;;5.29;100.00
32933;BME280;19444;50.518;10.870;2022-11-15T07:25:38;96164.00;;;5.34;100.00
32933;BME280;19444;50.518;10.870;2022-11-15T07:28:36;96164.63;;;4.97;100.00
32933;BME280;19444;50.518;10.870;2022-11-15T07:31:33;96181.06;;;5.28;100.00
32933;BME280;19444;50.518;10.870;2022-11-15T07:34:30;96169.19;;;5.20;100.00
32933;BME280;19444;50.518;10.870;2022-11-15T07:37:26;96174.06;;;5.13;100.00
32933;BME280;19444;50.518;10.870;2022-11-15T07:40:25;96164.50;;;5.36;100.00
32933;BME280;19444;50.518;10.870;2022-11-15T07:43:22;96162.00;;;5.21;100.00
32933;BME280;19444;50.518;10.870;2022-11-15T07:46:19;96166.84;;;5.42;100.00
32933;BME280;19444;50.518;10.870;2022-11-15T07:49:15;96165.31;;;5.36;100.00
32933;BME280;19444;50.518;10.870;2022-11-15T07:52:13;96172.19;;;5.37;100.00
32933;BME280;19444;50.518;10.870;2022-11-15T07:55:10;96173.91;;;5.52;100.00
32933;BME280;19444;50.518;10.870;2022-11-15T07:58:11;96171.19;;;5.57;100.00
32933;BME280;19444;50.518;10.870;2022-11-15T08:01:09;96167.34;;;5.45;100.00
32933;BME280;19444;50.518;10.870;2022-11-15T08:04:07;96166.03;;;5.66;100.00
32933;BME280;19444;50.518;10.870;2022-11-15T08:07:03;96159.38;;;5.68;100.00
32933;BME280;19444;50.518;10.870;2022-11-15T08:10:00;96153.28;;;5.68;100.00
32933;BME280;19444;50.518;10.870;2022-11-15T08:13:06;96144.50;;;5.67;100.00
32933;BME280;19444;50.518;10.870;2022-11-15T08:16:04;96136.59;;;5.81;100.00
32933;BME280;19444;50.518;10.870;2022-11-15T08:19:02;96136.75;;;5.90;100.00
32933;BME280;19444;50.518;10.870;2022-11-15T08:21:59;96133.28;;;6.32;100.00
32933;BME280;19444;50.518;10.870;2022-11-15T08:24:56;96134.78;;;6.38;100.00
32933;BME280;19444;50.518;10.870;2022-11-15T08:27:54;96133.84;;;6.48;100.00
32933;BME280;19444;50.518;10.870;2022-11-15T08:30:54;96126.38;;;6.50;100.00
32933;BME280;19444;50.518;10.870;2022-11-15T08:33:51;96135.50;;;6.44;100.00
32933;BME280;19444;50.518;10.870;2022-11-15T08:36:48;96128.09;;;6.73;100.00
32933;BME280;19444;50.518;10.870;2022-11-15T08:39:45;96138.66;;;7.11;100.00
32933;BME280;19444;50.518;10.870;2022-11-15T08:42:42;96120.13;;;7.47;100.00
32933;BME280;19444;50.518;10.870;2022-11-15T08:45:42;96118.44;;;7.65;100.00
32933;BME280;19444;50.518;10.870;2022-11-15T08:48:39;96113.97;;;7.88;100.00
32933;BME280;19444;50.518;10.870;2022-11-15T08:51:35;96100.03;;;8.05;100.00
32933;BME280;19444;50.518;10.870;2022-11-15T08:54:32;96099.97;;;8.18;100.00
32933;BME280;19444;50.518;10.870;2022-11-15T08:57:30;96111.50;;;8.27;100.00
32933;BME280;19444;50.518;10.870;2022-11-15T09:00:27;96109.06;;;8.17;100.00
32933;BME280;19444;50.518;10.870;2022-11-15T09:03:24;96102.09;;;8.44;100.00
32933;BME280;19444;50.518;10.870;2022-11-15T09:06:21;96097.41;;;8.72;100.00
32933;BME280;19444;50.518;10.870;2022-11-15T09:09:18;96098.16;;;8.41;100.00
32933;BME280;19444;50.518;10.870;2022-11-15T09:12:14;96089.81;;;8.88;100.00
32933;BME280;19444;50.518;10.870;2022-11-15T09:15:11;96088.00;;;9.05;100.00
32933;BME280;19444;50.518;10.870;2022-11-15T09:18:08;96085.38;;;8.83;100.00
32933;BME280;19444;50.518;10.870;2022-11-15T09:21:05;96087.13;;;8.88;100.00
32933;BME280;19444;50.518;10.870;2022-11-15T09:24:03;96092.03;;;8.94;100.00
32933;BME280;19444;50.518;10.870;2022-11-15T09:27:01;96086.25;;;8.70;100.00
32933;BME280;19444;50.518;10.870;2022-11-15T09:29:57;96094.06;;;8.66;100.00
32933;BME280;19444;50.518;10.870;2022-11-15T09:32:54;96094.00;;;8.80;100.00
32933;BME280;19444;50.518;10.870;2022-11-15T09:35:51;96101.72;;;8.81;100.00
32933;BME280;19444;50.518;10.870;2022-11-15T09:38:48;96090.31;;;8.98;100.00
32933;BME280;19444;50.518;10.870;2022-11-15T09:41:58;96093.75;;;8.90;100.00
32933;BME280;19444;50.518;10.870;2022-11-15T09:45:24;96089.69;;;9.01;100.00
32933;BME280;19444;50.518;10.870;2022-11-15T09:51:41;96087.66;;;8.98;100.00
32933;BME280;19444;50.518;10.870;2022-11-15T09:54:49;96080.50;;;8.85;100.00
32933;BME280;19444;50.518;10.870;2022-11-15T09:57:59;96072.84;;;8.92;100.00
32933;BME280;19444;50.518;10.870;2022-11-15T10:00:58;96069.59;;;8.73;100.00
32933;BME280;19444;50.518;10.870;2022-11-15T10:03:57;96060.94;;;8.98;100.00
32933;BME280;19444;50.518;10.870;2022-11-15T10:07:13;96059.63;;;8.87;100.00
32933;BME280;19444;50.518;10.870;2022-11-15T10:13:40;96068.22;;;8.84;100.00
32933;BME280;19444;50.518;10.870;2022-11-15T10:20:24;96059.38;;;8.75;100.00
32933;BME280;19444;50.518;10.870;2022-11-15T10:23:23;96060.50;;;9.53;100.00
32933;BME280;19444;50.518;10.870;2022-11-15T10:26:21;96061.31;;;9.71;100.00
32933;BME280;19444;50.518;10.870;2022-11-15T10:29:24;96056.03;;;10.23;100.00
32933;BME280;19444;50.518;10.870;2022-11-15T10:32:23;96052.34;;;10.79;100.00
32933;BME280;19444;50.518;10.870;2022-11-15T10:35:27;96042.09;;;10.73;100.00
32933;BME280;19444;50.518;10.870;2022-11-15T10:38:25;96037.13;;;11.01;100.00
32933;BME280;19444;50.518;10.870;2022-11-15T10:44:31;96025.13;;;11.07;100.00
32933;BME280;19444;50.518;10.870;2022-11-15T10:47:31;96010.31;;;12.89;100.00
32933;BME280;19444;50.518;10.870;2022-11-15T10:50:35;96009.22;;;13.14;100.00
32933;BME280;19444;50.518;10.870;2022-11-15T10:53:43;96009.59;;;13.61;100.00
32933;BME280;19444;50.518;10.870;2022-11-15T10:56:42;95996.72;;;14.63;96.70
32933;BME280;19444;50.518;10.870;2022-11-15T10:59:45;96001.69;;;13.93;98.40
32933;BME280;19444;50.518;10.870;2022-11-15T11:03:02;95991.44;;;14.98;97.62
32933;BME280;19444;50.518;10.870;2022-11-15T11:06:15;95985.63;;;14.96;93.04
32933;BME280;19444;50.518;10.870;2022-11-15T11:09:36;95969.91;;;15.49;91.70
32933;BME280;19444;50.518;10.870;2022-11-15T11:12:34;95969.00;;;15.10;86.28
32933;BME280;19444;50.518;10.870;2022-11-15T11:15:31;95965.44;;;15.57;86.99
32933;BME280;19444;50.518;10.870;2022-11-15T11:22:12;95960.00;;;15.22;93.25
32933;BME280;19444;50.518;10.870;2022-11-15T11:29:02;95956.53;;;15.37;80.70
32933;BME280;19444;50.518;10.870;2022-11-15T11:32:58;95942.97;;;15.88;84.17
32933;BME280;19444;50.518;10.870;2022-11-15T11:36:25;95940.34;;;15.21;91.97
32933;BME280;19444;50.518;10.870;2022-11-15T11:39:52;95948.03;;;14.44;95.71
32933;BME280;19444;50.518;10.870;2022-11-15T11:43:09;95933.03;;;14.59;100.00
32933;BME280;19444;50.518;10.870;2022-11-15T11:46:47;95925.03;;;14.78;100.00
32933;BME280;19444;50.518;10.870;2022-11-15T11:49:59;95920.63;;;14.42;100.00
32933;BME280;19444;50.518;10.870;2022-11-15T11:52:58;95928.16;;;14.20;100.00
32933;BME280;19444;50.518;10.870;2022-11-15T11:56:07;95921.78;;;13.57;100.00
32933;BME280;19444;50.518;10.870;2022-11-15T11:59:33;95921.19;;;14.47;100.00
32933;BME280;19444;50.518;10.870;2022-11-15T12:02:39;95920.91;;;13.04;100.00
32933;BME280;19444;50.518;10.870;2022-11-15T12:05:50;95912.25;;;13.87;100.00
32933;BME280;19444;50.518;10.870;2022-11-15T12:09:10;95909.00;;;13.42;100.00
32933;BME280;19444;50.518;10.870;2022-11-15T12:12:43;95915.19;;;12.93;100.00
32933;BME280;19444;50.518;10.870;2022-11-15T12:16:07;95915.63;;;13.84;100.00
32933;BME280;19444;50.518;10.870;2022-11-15T12:19:08;95910.25;;;13.44;100.00
32933;BME280;19444;50.518;10.870;2022-11-15T12:22:16;95907.28;;;13.61;100.00
32933;BME280;19444;50.518;10.870;2022-11-15T12:25:46;95901.97;;;12.76;100.00
32933;BME280;19444;50.518;10.870;2022-11-15T12:32:14;95905.56;;;13.04;100.00
32933;BME280;19444;50.518;10.870;2022-11-15T12:47:51;95888.41;;;12.60;100.00
32933;BME280;19444;50.518;10.870;2022-11-15T12:53:48;95885.66;;;12.23;100.00
32933;BME280;19444;50.518;10.870;2022-11-15T13:03:22;95888.06;;;11.71;100.00
32933;BME280;19444;50.518;10.870;2022-11-15T13:06:45;95887.69;;;11.81;100.00
32933;BME280;19444;50.518;10.870;2022-11-15T13:15:55;95874.25;;;11.39;100.00
32933;BME280;19444;50.518;10.870;2022-11-15T13:18:54;95882.44;;;11.43;100.00
32933;BME280;19444;50.518;10.870;2022-11-15T13:21:51;95871.97;;;11.08;100.00
32933;BME280;19444;50.518;10.870;2022-11-15T13:25:23;95873.34;;;11.35;100.00
32933;BME280;19444;50.518;10.870;2022-11-15T13:28:37;95867.97;;;11.56;100.00
32933;BME280;19444;50.518;10.870;2022-11-15T13:31:37;95874.97;;;11.49;100.00
32933;BME280;19444;50.518;10.870;2022-11-15T13:34:37;95860.06;;;11.39;100.00
32933;BME280;19444;50.518;10.870;2022-11-15T13:37:50;95854.03;;;11.21;100.00
32933;BME280;19444;50.518;10.870;2022-11-15T13:40:48;95846.91;;;10.75;100.00
32933;BME280;19444;50.518;10.870;2022-11-15T13:43:45;95847.00;;;10.58;100.00
32933;BME280;19444;50.518;10.870;2022-11-15T13:46:43;95842.00;;;10.77;100.00
32933;BME280;19444;50.518;10.870;2022-11-15T13:49:40;95833.44;;;10.63;100.00
32933;BME280;19444;50.518;10.870;2022-11-15T13:52:39;95832.00;;;10.36;100.00
32933;BME280;19444;50.518;10.870;2022-11-15T13:55:40;95834.38;;;10.29;100.00
32933;BME280;19444;50.518;10.870;2022-11-15T13:58:38;95833.47;;;10.24;100.00
32933;BME280;19444;50.518;10.870;2022-11-15T14:01:36;95824.94;;;10.61;100.00
32933;BME280;19444;50.518;10.870;2022-11-15T14:04:34;95827.94;;;10.59;100.00
32933;BME280;19444;50.518;10.870;2022-11-15T14:07:31;95828.28;;;11.08;100.00
32933;BME280;19444;50.518;10.870;2022-11-15T14:10:34;95829.66;;;10.64;100.00
32933;BME280;19444;50.518;10.870;2022-11-15T14:13:32;95821.00;;;10.20;100.00
32933;BME280;19444;50.518;10.870;2022-11-15T14:16:36;95822.69;;;10.33;100.00
32933;BME280;19444;50.518;10.870;2022-11-15T14:19:36;95823.34;;;10.21;100.00
32933;BME280;19444;50.518;10.870;2022-11-15T14:22:33;95821.72;;;10.00;100.00
32933;BME280;19444;50.518;10.870;2022-11-15T14:25:35;95827.22;;;9.94;100.00
32933;BME280;19444;50.518;10.870;2022-11-15T14:28:34;95830.56;;;9.74;100.00
32933;BME280;19444;50.518;10.870;2022-11-15T14:31:34;95830.16;;;10.10;100.00
32933;BME280;19444;50.518;10.870;2022-11-15T14:34:38;95827.63;;;9.50;100.00
32933;BME280;19444;50.518;10.870;2022-11-15T14:37:35;95826.06;;;9.31;100.00
32933;BME280;19444;50.518;10.870;2022-11-15T14:40:31;95832.81;;;9.29;100.00
32933;BME280;19444;50.518;10.870;2022-11-15T14:43:28;95829.38;;;9.11;100.00
32933;BME280;19444;50.518;10.870;2022-11-15T14:46:25;95816.00;;;9.20;100.00
32933;BME280;19444;50.518;10.870;2022-11-15T14:49:22;95824.31;;;8.83;100.00
32933;BME280;19444;50.518;10.870;2022-11-15T14:52:31;95820.03;;;8.65;100.00
32933;BME280;19444;50.518;10.870;2022-11-15T14:55:35;95816.72;;;8.68;100.00
32933;BME280;19444;50.518;10.870;2022-11-15T14:58:32;95818.59;;;8.50;100.00
32933;BME280;19444;50.518;10.870;2022-11-15T15:01:30;95808.22;;;8.09;100.00
32933;BME280;19444;50.518;10.870;2022-11-15T15:04:27;95811.09;;;8.21;100.00
32933;BME280;19444;50.518;10.870;2022-11-15T15:07:24;95805.28;;;8.19;100.00
32933;BME280;19444;50.518;10.870;2022-11-15T15:10:21;95803.53;;;8.15;100.00
32933;BME280;19444;50.518;10.870;2022-11-15T15:13:37;95800.56;;;7.85;100.00
32933;BME280;19444;50.518;10.870;2022-11-15T15:16:34;95797.47;;;7.92;100.00
32933;BME280;19444;50.518;10.870;2022-11-15T15:19:30;95787.28;;;7.94;100.00
32933;BME280;19444;50.518;10.870;2022-11-15T15:22:28;95791.25;;;8.05;100.00
32933;BME280;19444;50.518;10.870;2022-11-15T15:25:32;95795.13;;;7.90;100.00
32933;BME280;19444;50.518;10.870;2022-11-15T15:28:29;95795.91;;;7.91;100.00
32933;BME280;19444;50.518;10.870;2022-11-15T15:31:30;95793.91;;;7.96;100.00
32933;BME280;19444;50.518;10.870;2022-11-15T15:34:29;95796.38;;;7.93;100.00
32933;BME280;19444;50.518;10.870;2022-11-15T15:37:26;95799.00;;;7.84;100.00
32933;BME280;19444;50.518;10.870;2022-11-15T15:40:25;95799.06;;;7.62;100.00
32933;BME280;19444;50.518;10.870;2022-11-15T15:43:22;95791.84;;;7.62;100.00
32933;BME280;19444;50.518;10.870;2022-11-15T15:46:20;95791.25;;;7.74;100.00
32933;BME280;19444;50.518;10.870;2022-11-15T15:49:17;95785.56;;;7.67;100.00
32933;BME280;19444;50.518;10.870;2022-11-15T15:52:14;95782.31;;;7.70;100.00
32933;BME280;19444;50.518;10.870;2022-11-15T15:55:11;95780.28;;;7.76;100.00
32933;BME280;19444;50.518;10.870;2022-11-15T15:58:08;95783.16;;;7.79;100.00
32933;BME280;19444;50.518;10.870;2022-11-15T16:01:05;95779.50;;;7.75;100.00
32933;BME280;19444;50.518;10.870;2022-11-15T16:04:02;95781.53;;;7.69;100.00
32933;BME280;19444;50.518;10.870;2022-11-15T16:07:02;95765.03;;;7.67;100.00
32933;BME280;19444;50.518;10.870;2022-11-15T16:10:00;95772.75;;;7.69;100.00
32933;BME280;19444;50.518;10.870;2022-11-15T16:12:58;95769.84;;;7.57;100.00
32933;BME280;19444;50.518;10.870;2022-11-15T16:15:55;95768.25;;;7.56;100.00
32933;BME280;19444;50.518;10.870;2022-11-15T16:18:52;95764.97;;;7.50;100.00
32933;BME280;19444;50.518;10.870;2022-11-15T16:21:50;95761.47;;;7.41;100.00
32933;BME280;19444;50.518;10.870;2022-11-15T16:24:48;95768.69;;;7.49;100.00
32933;BME280;19444;50.518;10.870;2022-11-15T16:27:45;95763.25;;;7.54;100.00
32933;BME280;19444;50.518;10.870;2022-11-15T16:30:43;95765.44;;;7.52;100.00
32933;BME280;19444;50.518;10.870;2022-11-15T16:33:40;95768.63;;;7.40;100.00
32933;BME280;19444;50.518;10.870;2022-11-15T16:36:37;95761.56;;;7.36;100.00
32933;BME280;19444;50.518;10.870;2022-11-15T16:39:34;95764.41;;;7.39;100.00
32933;BME280;19444;50.518;10.870;2022-11-15T16:42:30;95750.13;;;7.35;100.00
32933;BME280;19444;50.518;10.870;2022-11-15T16:45:28;95759.03;;;7.31;100.00
32933;BME280;19444;50.518;10.870;2022-11-15T16:48:27;95752.91;;;7.30;100.00
32933;BME280;19444;50.518;10.870;2022-11-15T16:51:24;95749.13;;;7.23;100.00
32933;BME280;19444;50.518;10.870;2022-11-15T16:54:21;95741.66;;;7.11;100.00